createdAt,value
2022-12-31T11:25:38.722Z,5.80
2022-12-31T11:28:50.210Z,6.65
2022-12-31T11:32:00.815Z,4.75
2022-12-31T11:34:57.351Z,6.40
2022-12-31T11:37:47.789Z,6.20
2022-12-31T11:40:44.333Z,6.67
2022-12-31T11:43:38.593Z,6.90
2022-12-31T11:46:44.898Z,7.80
2022-12-31T11:49:49.482Z,7.05
2022-12-31T11:52:55.334Z,22.90
2022-12-31T11:55:53.972Z,13.73
2022-12-31T11:58:46.121Z,8.07
2022-12-31T12:01:44.288Z,23.73
2022-12-31T12:04:33.632Z,6.43
2022-12-31T12:07:24.048Z,6.57
2022-12-31T12:10:22.959Z,8.33
2022-12-31T12:14:00.921Z,7.00
2022-12-31T12:17:56.984Z,6.85
2022-12-31T12:21:47.281Z,8.20
2022-12-31T12:25:38.821Z,6.25
2022-12-31T12:29:28.556Z,6.13
2022-12-31T12:33:17.685Z,8.05
2022-12-31T12:37:23.401Z,10.15
2022-12-31T12:41:20.789Z,8.80
2022-12-31T12:45:15.126Z,6.57
2022-12-31T12:49:05.559Z,6.13
2022-12-31T12:53:15.920Z,7.72
2022-12-31T12:57:15.001Z,4.38
2022-12-31T13:01:07.725Z,6.00
2022-12-31T13:05:21.708Z,5.88
2022-12-31T13:09:32.495Z,3.17
2022-12-31T13:13:28.149Z,7.57
2022-12-31T13:17:36.873Z,5.35
2022-12-31T13:21:33.483Z,4.30
2022-12-31T13:25:33.015Z,5.13
2022-12-31T13:29:21.677Z,0.90
2022-12-31T13:32:21.017Z,1.05
2022-12-31T13:36:16.325Z,0.98
2022-12-31T13:40:13.031Z,1.30
2022-12-31T13:44:05.646Z,1.85
2022-12-31T13:47:55.299Z,1.20
2022-12-31T13:50:51.711Z,1.15
2022-12-31T13:53:44.624Z,0.98
2022-12-31T13:56:37.894Z,1.20
2022-12-31T13:59:31.350Z,2.00
2022-12-31T14:02:30.264Z,2.23
2022-12-31T14:05:24.667Z,3.85
2022-12-31T14:08:12.633Z,1.25
2022-12-31T14:11:09.448Z,1.17
2022-12-31T14:14:14.622Z,3.15
2022-12-31T14:17:09.787Z,2.53
2022-12-31T14:20:08.232Z,1.10
2022-12-31T14:23:04.646Z,1.20
2022-12-31T14:25:57.766Z,2.88
2022-12-31T14:28:49.833Z,2.08
2022-12-31T14:32:09.422Z,1.40
2022-12-31T14:35:02.071Z,1.05
2022-12-31T14:37:59.597Z,1.10
2022-12-31T14:41:01.644Z,1.10
2022-12-31T14:43:59.602Z,1.20
2022-12-31T14:47:01.502Z,5.70
2022-12-31T14:50:00.516Z,4.20
2022-12-31T14:52:52.329Z,1.35
2022-12-31T14:55:41.642Z,0.90
2022-12-31T14:58:35.805Z,7.28
2022-12-31T15:01:26.094Z,1.10
2022-12-31T15:04:16.456Z,1.40
2022-12-31T15:07:12.016Z,1.48
2022-12-31T15:10:11.350Z,1.00
2022-12-31T15:13:06.263Z,1.00
2022-12-31T15:16:10.853Z,1.10
2022-12-31T15:19:31.966Z,1.38
2022-12-31T15:22:34.597Z,1.10
2022-12-31T15:25:28.504Z,1.40
2022-12-31T15:28:31.027Z,5.47
2022-12-31T15:31:21.621Z,1.97
2022-12-31T15:34:27.746Z,1.83
2022-12-31T15:37:31.075Z,1.55
2022-12-31T15:40:21.440Z,1.80
2022-12-31T15:43:14.173Z,1.35
2022-12-31T15:46:05.101Z,1.20
2022-12-31T15:49:03.682Z,1.77
2022-12-31T15:52:00.675Z,8.43
2022-12-31T15:54:51.734Z,1.65
2022-12-31T15:57:42.956Z,0.90
2022-12-31T16:00:44.546Z,1.30
2022-12-31T16:03:33.487Z,3.47
2022-12-31T16:06:22.201Z,1.30
2022-12-31T16:09:22.055Z,1.45
2022-12-31T16:12:12.607Z,1.65
2022-12-31T16:15:00.904Z,1.57
2022-12-31T16:17:59.629Z,2.97
2022-12-31T16:20:48.696Z,1.85
2022-12-31T16:23:42.207Z,2.83
2022-12-31T16:26:37.951Z,5.45
2022-12-31T16:29:26.288Z,3.93
2022-12-31T16:32:17.222Z,3.15
2022-12-31T16:35:23.524Z,2.53
2022-12-31T16:38:15.821Z,1.65
2022-12-31T16:41:18.142Z,1.85
2022-12-31T16:44:26.203Z,2.17
2022-12-31T16:47:18.975Z,2.25
2022-12-31T16:50:17.197Z,3.03
2022-12-31T16:53:07.112Z,3.30
2022-12-31T16:55:57.842Z,1.35
2022-12-31T16:58:46.576Z,1.30
2022-12-31T17:01:38.473Z,2.33
2022-12-31T17:04:27.264Z,2.22
2022-12-31T17:07:27.512Z,2.00
2022-12-31T17:10:26.812Z,2.50
2022-12-31T17:13:28.140Z,1.20
2022-12-31T17:16:18.983Z,4.93
2022-12-31T17:19:08.476Z,1.48
2022-12-31T17:21:56.407Z,1.30
2022-12-31T17:24:44.487Z,1.20
2022-12-31T17:27:33.254Z,3.63
2022-12-31T17:30:23.892Z,1.60
2022-12-31T17:36:24.730Z,1.63
2022-12-31T17:39:18.422Z,1.60
2022-12-31T17:42:06.637Z,1.73
2022-12-31T17:44:57.744Z,2.95
2022-12-31T17:53:27.072Z,2.20
2022-12-31T18:01:56.166Z,1.95
2022-12-31T18:04:44.399Z,3.42
2022-12-31T18:07:32.309Z,2.10
2022-12-31T18:10:25.196Z,1.53
2022-12-31T18:13:17.420Z,11.95
2022-12-31T18:16:05.949Z,11.90
2022-12-31T18:19:01.081Z,14.05
2022-12-31T18:21:49.199Z,12.38
2022-12-31T18:24:37.232Z,12.93
2022-12-31T18:33:06.260Z,11.93
2022-12-31T20:29:19.629Z,11.43
